createdAt,value
2022-11-23T00:01:36.895Z,63.63
2022-11-23T00:04:08.104Z,64.51
2022-11-23T00:06:37.071Z,64.39
2022-11-23T00:09:09.171Z,64.34
2022-11-23T00:12:03.961Z,64.32
2022-11-23T00:14:32.212Z,64.77
2022-11-23T00:17:00.266Z,65.02
2022-11-23T00:19:29.231Z,64.48
2022-11-23T00:21:57.606Z,64.21
2022-11-23T00:24:25.719Z,64.73
2022-11-23T00:26:53.923Z,64.73
2022-11-23T00:29:23.610Z,64.92
2022-11-23T00:31:51.738Z,65.22
2022-11-23T00:34:19.852Z,65.09
2022-11-23T00:36:48.034Z,64.15
2022-11-23T00:39:16.116Z,63.51
2022-11-23T00:41:44.720Z,64.44
2022-11-23T00:44:12.997Z,64.49
2022-11-23T00:46:42.702Z,64.33
2022-11-23T00:49:10.852Z,63.63
2022-11-23T00:51:39.431Z,64.29
2022-11-23T00:54:10.509Z,64.31
2022-11-23T00:56:38.652Z,64.06
2022-11-23T00:59:07.067Z,63.92
2022-11-23T01:01:37.895Z,63.70
2022-11-23T01:04:09.005Z,63.93
2022-11-23T01:06:40.980Z,63.52
2022-11-23T01:09:13.471Z,64.15
2022-11-23T01:11:42.321Z,63.88
2022-11-23T01:14:10.707Z,64.33
2022-11-23T01:16:42.853Z,64.30
2022-11-23T01:19:15.381Z,64.27
2022-11-23T01:21:44.616Z,63.97
2022-11-23T01:24:16.423Z,64.04
2022-11-23T01:26:45.384Z,63.99
2022-11-23T01:29:14.139Z,64.44
2022-11-23T01:31:46.578Z,64.21
2022-11-23T01:34:17.750Z,64.11
2022-11-23T01:36:46.463Z,64.81
2022-11-23T01:39:15.316Z,64.38
2022-11-23T01:41:46.374Z,64.52
2022-11-23T01:44:29.841Z,64.70
2022-11-23T01:47:01.386Z,64.04
2022-11-23T01:49:36.613Z,63.96
2022-11-23T01:52:10.627Z,64.10
2022-11-23T01:54:44.679Z,64.34
2022-11-23T01:57:18.982Z,64.36
2022-11-23T01:59:48.225Z,64.46
2022-11-23T02:02:18.111Z,64.32
2022-11-23T02:04:52.029Z,64.22
2022-11-23T02:07:21.582Z,64.36
2022-11-23T02:09:50.216Z,64.38
2022-11-23T02:19:07.995Z,64.58
2022-11-23T02:21:37.520Z,64.49
2022-11-23T02:24:13.689Z,64.67
2022-11-23T02:26:43.410Z,64.68
2022-11-23T02:29:17.795Z,64.44
2022-11-23T02:31:45.974Z,64.60
2022-11-23T02:34:17.367Z,64.59
2022-11-23T02:36:47.814Z,64.39
2022-11-23T02:39:19.775Z,64.13
2022-11-23T02:41:51.785Z,64.67
2022-11-23T02:44:35.143Z,64.33
2022-11-23T02:47:03.463Z,64.35
2022-11-23T02:49:33.854Z,64.43
2022-11-23T02:52:02.649Z,64.72
2022-11-23T02:54:31.114Z,64.61
2022-11-23T02:57:00.949Z,64.30
2022-11-23T02:59:30.424Z,64.66
2022-11-23T03:01:58.878Z,64.91
2022-11-23T03:04:28.109Z,64.39
2022-11-23T03:06:56.699Z,65.01
2022-11-23T03:09:26.389Z,64.52
2022-11-23T03:12:00.437Z,64.63
2022-11-23T03:14:31.448Z,65.03
2022-11-23T03:16:59.945Z,64.61
2022-11-23T03:19:31.802Z,64.77
2022-11-23T03:22:00.149Z,65.03
2022-11-23T03:24:31.935Z,65.09
2022-11-23T03:27:02.455Z,64.57
2022-11-23T03:29:32.435Z,64.96
2022-11-23T03:32:05.703Z,65.51
2022-11-23T03:34:34.172Z,64.94
2022-11-23T03:37:02.753Z,65.01
2022-11-23T03:39:32.635Z,64.80
2022-11-23T03:42:19.435Z,65.21
2022-11-23T03:44:49.511Z,64.64
2022-11-23T03:47:20.710Z,64.94
2022-11-23T03:49:49.537Z,65.09
2022-11-23T03:52:17.679Z,65.19
2022-11-23T03:54:47.064Z,64.34
2022-11-23T03:57:15.509Z,64.61
2022-11-23T03:59:43.752Z,64.38
2022-11-23T04:02:14.454Z,65.44
2022-11-23T04:04:50.256Z,64.95
2022-11-23T04:07:44.536Z,64.60
2022-11-23T04:10:12.783Z,64.28
2022-11-23T04:12:59.378Z,65.13
2022-11-23T04:15:27.547Z,64.55
2022-11-23T04:17:57.259Z,64.30
2022-11-23T04:20:25.385Z,64.00
2022-11-23T04:22:53.622Z,64.19
2022-11-23T04:25:21.756Z,64.77
2022-11-23T04:27:52.064Z,63.97
2022-11-23T04:30:20.643Z,64.85
2022-11-23T04:32:49.120Z,64.16
2022-11-23T04:35:19.657Z,64.84
2022-11-23T04:37:50.292Z,64.94
2022-11-23T04:40:19.403Z,65.21
2022-11-23T04:43:01.839Z,65.20
2022-11-23T04:45:34.916Z,64.26
2022-11-23T04:48:07.678Z,64.84
2022-11-23T04:50:40.561Z,64.33
2022-11-23T04:53:10.767Z,64.61
2022-11-23T04:55:44.247Z,64.82
2022-11-23T04:58:12.744Z,65.10
2022-11-23T05:00:41.605Z,64.67
2022-11-23T05:03:11.439Z,64.26
2022-11-23T05:05:43.774Z,65.39
2022-11-23T05:08:12.150Z,64.39
2022-11-23T05:10:51.243Z,64.68
2022-11-23T05:13:20.479Z,64.59
2022-11-23T05:15:50.313Z,64.78
2022-11-23T05:18:24.495Z,65.16
2022-11-23T05:20:54.142Z,64.63
2022-11-23T05:23:23.034Z,64.49
2022-11-23T05:25:53.754Z,64.51
2022-11-23T05:28:39.515Z,64.39
2022-11-23T05:31:15.457Z,64.67
2022-11-23T05:33:46.563Z,64.46
2022-11-23T05:36:17.993Z,64.71
2022-11-23T05:38:46.175Z,64.10
2022-11-23T05:41:21.200Z,64.24
2022-11-23T05:43:53.389Z,64.15
2022-11-23T05:46:26.086Z,64.27
2022-11-23T05:48:54.267Z,63.78
2022-11-23T05:51:24.199Z,64.07
2022-11-23T05:53:53.132Z,64.12
2022-11-23T05:56:40.024Z,64.40
2022-11-23T05:59:14.845Z,64.37
2022-11-23T06:01:48.297Z,64.48
2022-11-23T06:04:24.491Z,64.48
2022-11-23T06:06:57.237Z,64.88
2022-11-23T06:09:25.439Z,64.78
2022-11-23T06:11:55.110Z,64.07
2022-11-23T06:14:23.969Z,64.62
2022-11-23T06:16:52.565Z,64.27
2022-11-23T06:19:37.639Z,64.37
2022-11-23T06:22:08.394Z,64.42
2022-11-23T06:24:44.252Z,64.80
2022-11-23T06:27:41.591Z,64.00
2022-11-23T06:30:25.006Z,64.56
2022-11-23T06:32:53.392Z,64.28
2022-11-23T06:35:23.956Z,65.13
2022-11-23T06:37:54.676Z,64.17
2022-11-23T06:40:23.209Z,64.72
2022-11-23T06:42:54.068Z,64.16
2022-11-23T06:45:29.321Z,65.12
2022-11-23T06:48:01.281Z,64.76
2022-11-23T06:50:29.659Z,65.11
2022-11-23T06:52:59.778Z,64.56
2022-11-23T06:55:37.194Z,64.48
2022-11-23T06:58:07.339Z,64.47
2022-11-23T07:00:35.849Z,64.86
2022-11-23T07:03:04.937Z,64.71
2022-11-23T07:05:41.059Z,64.26
2022-11-23T07:08:11.020Z,64.41
2022-11-23T07:10:39.352Z,64.21
2022-11-23T07:13:11.804Z,63.81
2022-11-23T07:15:40.647Z,64.30
2022-11-23T07:18:11.627Z,64.28
2022-11-23T07:20:43.292Z,63.77
2022-11-23T07:23:13.186Z,63.42
2022-11-23T07:25:42.055Z,63.78
2022-11-23T07:28:13.467Z,63.64
2022-11-23T07:30:41.673Z,63.10
2022-11-23T07:33:13.518Z,62.71
2022-11-23T07:35:43.013Z,62.26
2022-11-23T07:38:12.510Z,62.14
2022-11-23T07:40:41.203Z,61.73
2022-11-23T07:43:17.639Z,61.41
2022-11-23T07:45:50.009Z,61.44
2022-11-23T07:48:19.100Z,60.90
2022-11-23T07:50:47.213Z,60.95
2022-11-23T07:53:16.651Z,60.69
2022-11-23T07:55:44.887Z,60.60
2022-11-23T07:58:13.286Z,60.85
2022-11-23T08:00:41.418Z,60.31
2022-11-23T08:03:30.569Z,60.02
2022-11-23T08:05:59.079Z,60.23
2022-11-23T08:08:28.494Z,60.03
2022-11-23T08:10:56.580Z,59.94
2022-11-23T08:13:24.726Z,60.00
2022-11-23T08:15:55.399Z,59.93
2022-11-23T08:18:24.678Z,60.15
2022-11-23T08:20:52.824Z,60.00
2022-11-23T08:23:21.733Z,60.57
2022-11-23T08:25:51.268Z,60.33
2022-11-23T08:28:20.852Z,59.36
2022-11-23T08:30:49.811Z,59.91
2022-11-23T08:33:18.307Z,59.68
2022-11-23T08:35:46.469Z,59.09
2022-11-23T08:38:14.819Z,59.36
2022-11-23T08:40:42.995Z,59.11
2022-11-23T08:43:19.260Z,59.48
2022-11-23T08:45:49.634Z,58.90
2022-11-23T08:48:17.883Z,59.44
2022-11-23T08:50:46.030Z,59.53
2022-11-23T08:53:14.211Z,59.21
2022-11-23T08:55:42.385Z,58.76
2022-11-23T08:58:13.561Z,58.58
2022-11-23T09:00:41.904Z,58.76
2022-11-23T09:03:10.512Z,58.94
2022-11-23T09:05:39.629Z,58.13
2022-11-23T09:08:08.922Z,58.52
2022-11-23T09:10:37.942Z,58.18
2022-11-23T09:13:06.469Z,58.04
2022-11-23T09:15:36.604Z,57.65
2022-11-23T09:18:04.813Z,57.60
2022-11-23T09:20:33.008Z,58.22
2022-11-23T09:23:01.065Z,57.77
2022-11-23T09:25:29.343Z,57.72
2022-11-23T09:28:01.215Z,58.42
2022-11-23T09:30:29.464Z,58.13
2022-11-23T09:32:58.987Z,57.05
2022-11-23T09:35:27.300Z,57.81
2022-11-23T09:37:59.011Z,57.21
2022-11-23T09:40:57.598Z,56.70
2022-11-23T09:43:47.949Z,56.99
2022-11-23T09:46:25.679Z,55.93
2022-11-23T09:49:17.121Z,55.35
2022-11-23T09:51:46.695Z,55.63
2022-11-23T09:54:28.588Z,55.35
2022-11-23T09:57:01.657Z,55.85
2022-11-23T09:59:42.258Z,56.36
2022-11-23T10:02:20.928Z,56.42
2022-11-23T10:04:51.433Z,56.98
2022-11-23T10:07:45.041Z,55.97
2022-11-23T10:10:30.407Z,54.77
2022-11-23T10:13:14.126Z,54.13
2022-11-23T10:16:02.479Z,55.06
2022-11-23T10:18:41.038Z,54.68
2022-11-23T10:21:20.263Z,54.62
2022-11-23T10:23:55.501Z,54.19
2022-11-23T10:26:32.702Z,54.18
2022-11-23T10:29:13.752Z,53.58
2022-11-23T10:31:48.918Z,53.52
2022-11-23T10:34:34.850Z,53.74
2022-11-23T10:37:04.523Z,53.71
2022-11-23T10:39:32.715Z,53.78
2022-11-23T10:42:10.602Z,53.80
2022-11-23T10:44:39.905Z,53.97
2022-11-23T10:47:08.123Z,53.29
2022-11-23T10:49:37.367Z,53.23
2022-11-23T10:52:26.928Z,53.03
2022-11-23T10:54:57.254Z,52.80
2022-11-23T10:57:34.684Z,52.60
2022-11-23T11:00:15.522Z,52.47
2022-11-23T11:02:46.817Z,52.63
2022-11-23T11:06:01.095Z,52.91
2022-11-23T11:08:21.051Z,52.34
2022-11-23T11:10:51.954Z,51.58
2022-11-23T11:13:30.540Z,51.08
2022-11-23T11:16:02.811Z,51.33
2022-11-23T11:18:33.913Z,50.97
2022-11-23T11:21:06.625Z,50.48
2022-11-23T11:23:40.555Z,51.24
2022-11-23T11:26:19.880Z,50.95
2022-11-23T11:28:51.621Z,51.16
2022-11-23T11:31:42.980Z,50.50
2022-11-23T11:34:23.037Z,49.61
2022-11-23T11:36:59.686Z,49.49
2022-11-23T11:39:36.207Z,50.14
2022-11-23T11:42:09.985Z,49.47
2022-11-23T11:44:41.669Z,49.82
2022-11-23T11:47:25.189Z,49.93
2022-11-23T11:49:56.044Z,50.14
2022-11-23T11:52:29.092Z,50.53
2022-11-23T11:55:06.502Z,50.14
2022-11-23T11:57:41.279Z,49.39
2022-11-23T12:00:16.367Z,50.05
2022-11-23T12:02:56.819Z,49.79
2022-11-23T12:05:31.635Z,49.28
2022-11-23T12:08:07.657Z,49.45
2022-11-23T12:10:45.345Z,50.28
2022-11-23T12:13:16.897Z,50.60
2022-11-23T12:15:50.550Z,49.98
2022-11-23T12:18:47.324Z,50.15
2022-11-23T12:21:35.122Z,50.20
2022-11-23T12:24:12.615Z,49.75
2022-11-23T12:26:54.293Z,48.67
2022-11-23T12:29:54.797Z,47.82
2022-11-23T12:32:30.420Z,48.31
2022-11-23T12:35:32.126Z,47.77
2022-11-23T12:38:14.126Z,48.47
2022-11-23T12:41:04.983Z,47.52
2022-11-23T12:43:48.239Z,48.17
2022-11-23T12:46:24.594Z,47.69
2022-11-23T12:49:12.959Z,48.33
2022-11-23T12:51:54.933Z,48.80
2022-11-23T12:54:45.641Z,48.01
2022-11-23T12:57:20.475Z,48.60
2022-11-23T13:00:00.513Z,48.48
2022-11-23T13:03:42.711Z,48.80
2022-11-23T13:07:26.268Z,47.77
2022-11-23T13:10:03.571Z,48.93
2022-11-23T13:12:58.094Z,48.53
2022-11-23T13:15:47.112Z,48.59
2022-11-23T13:18:42.586Z,48.87
2022-11-23T13:21:26.207Z,48.42
2022-11-23T13:24:25.070Z,48.23
2022-11-23T13:27:58.722Z,48.49
2022-11-23T13:31:14.407Z,49.04
2022-11-23T13:33:40.143Z,49.45
2022-11-23T13:36:16.837Z,49.35
2022-11-23T13:39:02.596Z,48.95
2022-11-23T13:42:00.501Z,49.06
2022-11-23T13:44:32.454Z,49.08
2022-11-23T13:47:07.107Z,48.75
2022-11-23T13:49:43.421Z,48.27
2022-11-23T13:52:31.643Z,48.27
2022-11-23T13:55:23.334Z,48.36
2022-11-23T13:58:40.985Z,47.80
2022-11-23T14:01:10.079Z,48.54
2022-11-23T14:03:56.743Z,48.52
2022-11-23T14:06:40.768Z,48.69
2022-11-23T14:09:19.111Z,48.45
2022-11-23T14:12:02.958Z,48.95
2022-11-23T14:14:45.945Z,47.85
2022-11-23T14:17:47.228Z,48.75
2022-11-23T14:20:35.682Z,48.98
2022-11-23T14:23:36.823Z,48.26
2022-11-23T14:26:27.148Z,48.74
2022-11-23T14:29:29.499Z,48.97
2022-11-23T14:32:20.957Z,49.29
2022-11-23T14:35:03.709Z,49.24
2022-11-23T14:37:48.415Z,49.18
2022-11-23T14:40:25.350Z,49.18
2022-11-23T14:42:56.801Z,49.50
2022-11-23T14:45:30.516Z,49.95
2022-11-23T14:47:58.869Z,49.48
2022-11-23T14:50:29.818Z,50.55
2022-11-23T14:53:00.995Z,49.78
2022-11-23T14:55:31.616Z,50.37
2022-11-23T14:58:06.259Z,50.04
2022-11-23T15:00:40.137Z,50.29
2022-11-23T15:03:48.293Z,50.13
2022-11-23T15:06:12.085Z,50.84
2022-11-23T15:08:49.605Z,50.73
2022-11-23T15:11:22.050Z,50.60
2022-11-23T15:13:52.641Z,51.30
2022-11-23T15:16:22.674Z,51.21
2022-11-23T15:18:51.824Z,51.02
2022-11-23T15:21:27.349Z,51.28
2022-11-23T15:24:00.054Z,51.10
2022-11-23T15:29:34.247Z,51.63
2022-11-23T15:32:29.445Z,51.46
2022-11-23T15:34:55.759Z,51.71
2022-11-23T15:37:27.837Z,51.12
2022-11-23T15:39:59.053Z,51.74
2022-11-23T15:42:28.470Z,51.75
2022-11-23T15:44:56.730Z,51.57
2022-11-23T15:47:28.294Z,51.45
2022-11-23T15:50:02.398Z,51.37
2022-11-23T15:52:36.400Z,51.20
2022-11-23T15:55:10.396Z,51.97
2022-11-23T15:57:40.362Z,52.39
2022-11-23T16:00:22.315Z,52.15
2022-11-23T16:02:51.067Z,52.42
2022-11-23T16:05:23.056Z,52.08
2022-11-23T16:07:54.517Z,52.48
2022-11-23T16:10:25.885Z,52.27
2022-11-23T16:12:56.523Z,52.61
2022-11-23T16:15:41.890Z,52.82
2022-11-23T16:18:26.613Z,52.53
2022-11-23T16:20:59.419Z,52.71
2022-11-23T16:23:34.214Z,52.93
2022-11-23T16:26:06.942Z,53.31
2022-11-23T16:28:39.992Z,53.78
2022-11-23T16:31:23.100Z,53.15
2022-11-23T16:33:51.602Z,53.13
2022-11-23T16:36:19.701Z,52.58
2022-11-23T16:38:47.986Z,52.85
2022-11-23T16:41:17.539Z,52.68
2022-11-23T16:43:45.610Z,52.39
2022-11-23T16:46:13.808Z,52.42
2022-11-23T16:48:43.544Z,53.30
2022-11-23T16:51:14.580Z,53.45
2022-11-23T16:54:12.111Z,53.87
2022-11-23T16:56:34.154Z,53.85
2022-11-23T16:59:02.658Z,55.01
2022-11-23T17:01:32.553Z,54.40
2022-11-23T17:04:01.144Z,55.47
2022-11-23T17:06:29.471Z,55.53
2022-11-23T17:09:04.722Z,55.82
2022-11-23T17:11:38.662Z,56.07
2022-11-23T17:14:07.481Z,56.28
2022-11-23T17:16:35.811Z,56.79
2022-11-23T17:19:03.978Z,56.43
2022-11-23T17:21:32.102Z,56.47
2022-11-23T17:24:00.302Z,56.79
2022-11-23T17:26:37.280Z,57.41
2022-11-23T17:29:11.670Z,58.00
2022-11-23T17:31:40.379Z,58.18
2022-11-23T17:34:09.481Z,58.68
2022-11-23T17:36:38.574Z,59.58
2022-11-23T17:39:06.995Z,59.61
2022-11-23T17:41:36.691Z,60.32
2022-11-23T17:44:05.575Z,60.41
2022-11-23T17:46:33.836Z,61.27
2022-11-23T17:49:02.684Z,61.73
2022-11-23T17:51:31.060Z,61.72
2022-11-23T17:53:59.166Z,62.16
2022-11-23T17:56:28.562Z,62.50
2022-11-23T17:58:58.178Z,62.77
2022-11-23T18:01:26.394Z,63.99
2022-11-23T18:03:54.557Z,64.07
2022-11-23T18:06:25.075Z,64.89
2022-11-23T18:08:53.681Z,64.63
2022-11-23T18:11:22.746Z,64.96
2022-11-23T18:13:51.913Z,64.69
2022-11-23T18:16:24.618Z,65.29
2022-11-23T18:18:53.231Z,64.73
2022-11-23T18:21:21.406Z,65.28
2022-11-23T18:23:49.679Z,65.63
2022-11-23T18:26:21.318Z,64.89
2022-11-23T18:28:51.229Z,65.24
2022-11-23T18:31:20.909Z,65.77
2022-11-23T18:33:49.119Z,65.93
2022-11-23T18:36:17.444Z,66.26
2022-11-23T18:38:45.893Z,66.17
2022-11-23T18:41:16.588Z,66.25
2022-11-23T18:43:45.015Z,66.06
2022-11-23T18:46:19.030Z,64.53
2022-11-23T18:48:51.176Z,65.18
2022-11-23T18:51:19.855Z,66.00
2022-11-23T18:53:50.025Z,66.16
2022-11-23T18:56:19.294Z,66.20
2022-11-23T18:58:47.909Z,66.22
2022-11-23T19:01:19.121Z,66.53
2022-11-23T19:03:51.013Z,66.15
2022-11-23T19:06:23.016Z,66.69
2022-11-23T19:08:54.495Z,66.57
2022-11-23T19:11:25.423Z,67.12
2022-11-23T19:13:55.701Z,66.97
2022-11-23T19:16:26.687Z,67.12
2022-11-23T19:18:57.888Z,67.02
2022-11-23T19:21:28.234Z,67.17
2022-11-23T19:23:58.325Z,67.54
2022-11-23T19:26:27.996Z,67.74
2022-11-23T19:28:56.906Z,67.62
2022-11-23T19:31:27.602Z,67.63
2022-11-23T19:34:00.884Z,68.01
2022-11-23T19:36:36.713Z,68.32
2022-11-23T19:39:11.630Z,68.89
2022-11-23T19:41:39.859Z,68.22
2022-11-23T19:44:10.414Z,68.42
2022-11-23T19:46:38.765Z,69.12
2022-11-23T19:49:08.914Z,69.26
2022-11-23T19:51:37.058Z,69.60
2022-11-23T19:54:06.106Z,70.13
2022-11-23T19:56:35.298Z,70.30
2022-11-23T19:59:04.124Z,69.78
2022-11-23T20:01:33.505Z,70.08
2022-11-23T20:04:08.793Z,70.17
2022-11-23T20:06:42.269Z,71.04
2022-11-23T20:09:13.398Z,71.69
2022-11-23T20:11:45.826Z,71.03
2022-11-23T20:14:16.513Z,71.07
2022-11-23T20:16:44.600Z,70.51
2022-11-23T20:19:12.901Z,70.40
2022-11-23T20:21:42.358Z,70.90
2022-11-23T20:24:14.421Z,70.52
2022-11-23T20:26:43.509Z,69.25
2022-11-23T20:29:13.581Z,69.15
2022-11-23T20:31:41.822Z,68.17
2022-11-23T20:34:13.293Z,69.80
2022-11-23T20:36:45.883Z,69.42
2022-11-23T20:39:16.103Z,69.29
2022-11-23T20:41:44.967Z,68.93
2022-11-23T20:44:15.243Z,69.11
2022-11-23T20:49:32.336Z,69.26
2022-11-23T20:52:02.704Z,68.97
2022-11-23T20:54:30.918Z,69.02
2022-11-23T20:57:00.249Z,68.52
2022-11-23T20:59:28.864Z,69.15
2022-11-23T21:01:57.002Z,68.99
2022-11-23T21:04:25.339Z,69.19
2022-11-23T21:06:54.540Z,68.81
2022-11-23T21:09:23.941Z,68.95
2022-11-23T21:12:10.107Z,68.78
2022-11-23T21:14:38.263Z,68.52
2022-11-23T21:17:07.635Z,68.63
2022-11-23T21:19:37.934Z,67.74
2022-11-23T21:22:08.871Z,68.64
2022-11-23T21:24:42.305Z,68.71
2022-11-23T21:27:14.062Z,68.61
2022-11-23T21:29:44.000Z,68.21
2022-11-23T21:32:15.129Z,67.29
2022-11-23T21:34:43.521Z,67.44
2022-11-23T21:37:12.538Z,67.96
2022-11-23T21:39:43.200Z,68.12
2022-11-23T21:42:38.043Z,68.03
2022-11-23T21:45:09.493Z,67.92
2022-11-23T21:47:37.584Z,67.55
2022-11-23T21:50:09.933Z,66.40
2022-11-23T21:52:38.023Z,65.21
2022-11-23T21:55:09.646Z,64.49
2022-11-23T21:57:37.785Z,63.82
2022-11-23T22:00:07.267Z,63.69
2022-11-23T22:02:40.263Z,62.93
2022-11-23T22:05:08.875Z,62.57
2022-11-23T22:07:36.969Z,63.19
2022-11-23T22:10:07.142Z,63.23
2022-11-23T22:12:35.298Z,62.92
2022-11-23T22:15:03.651Z,62.76
2022-11-23T22:17:31.665Z,62.88
2022-11-23T22:19:59.755Z,62.52
2022-11-23T22:22:28.497Z,62.51
2022-11-23T22:24:56.601Z,62.38
2022-11-23T22:27:26.007Z,62.39
2022-11-23T22:29:54.149Z,61.80
2022-11-23T22:32:22.259Z,61.98
2022-11-23T22:34:50.344Z,62.43
2022-11-23T22:37:18.638Z,61.72
2022-11-23T22:39:46.744Z,62.00
2022-11-23T22:42:15.371Z,61.27
2022-11-23T22:44:44.878Z,61.61
2022-11-23T22:47:12.988Z,61.25
2022-11-23T22:49:41.065Z,61.48
2022-11-23T22:52:09.315Z,61.82
2022-11-23T22:54:37.681Z,61.31
2022-11-23T22:57:06.034Z,61.43
2022-11-23T22:59:34.121Z,60.69
2022-11-23T23:02:03.623Z,60.53
2022-11-23T23:04:32.021Z,61.14
2022-11-23T23:07:00.296Z,61.13
2022-11-23T23:09:28.379Z,60.77
2022-11-23T23:11:56.500Z,60.53
2022-11-23T23:14:24.542Z,60.68
2022-11-23T23:16:52.656Z,60.58
2022-11-23T23:19:22.085Z,60.98
2022-11-23T23:21:50.114Z,60.94
2022-11-23T23:24:18.230Z,60.87
2022-11-23T23:26:46.237Z,61.40
2022-11-23T23:29:14.737Z,60.61
2022-11-23T23:31:42.795Z,60.66
2022-11-23T23:34:10.882Z,60.38
2022-11-23T23:36:40.289Z,60.64
2022-11-23T23:39:08.473Z,60.51
2022-11-23T23:41:36.741Z,60.62
2022-11-23T23:44:04.907Z,60.46
2022-11-23T23:46:33.075Z,60.20
2022-11-23T23:49:01.516Z,59.84
2022-11-23T23:51:29.617Z,59.43
2022-11-23T23:53:59.719Z,59.58
2022-11-23T23:56:30.568Z,59.40
2022-11-23T23:59:00.179Z,60.29
